createdAt,value
2022-12-12T00:00:13.412Z,2.60
2022-12-12T00:01:13.696Z,2.00
2022-12-12T00:02:13.719Z,2.40
2022-12-12T00:03:13.912Z,2.40
2022-12-12T00:04:12.989Z,2.70
2022-12-12T00:05:13.301Z,2.80
2022-12-12T00:06:13.552Z,2.80
2022-12-12T00:07:13.446Z,2.80
2022-12-12T00:08:13.453Z,2.90
2022-12-12T00:09:13.441Z,2.80
2022-12-12T00:10:13.454Z,2.90
2022-12-12T00:11:13.341Z,2.90
2022-12-12T00:12:13.182Z,2.80
2022-12-12T00:13:13.248Z,2.80
2022-12-12T00:14:13.147Z,2.90
2022-12-12T00:15:13.575Z,2.90
2022-12-12T00:16:13.878Z,2.70
2022-12-12T00:17:12.763Z,2.80
2022-12-12T00:18:13.651Z,2.90
2022-12-12T00:19:13.666Z,2.90
2022-12-12T00:20:13.836Z,2.80
2022-12-12T00:21:13.747Z,2.90
2022-12-12T00:22:14.187Z,2.80
2022-12-12T00:23:13.128Z,2.80
2022-12-12T00:24:13.538Z,2.90
2022-12-12T00:25:13.889Z,2.90
2022-12-12T00:26:13.200Z,3.00
2022-12-12T00:27:13.343Z,3.10
2022-12-12T00:28:13.226Z,3.00
2022-12-12T00:29:13.155Z,3.00
2022-12-12T00:30:13.353Z,3.00
2022-12-12T00:31:13.812Z,3.00
2022-12-12T00:32:13.936Z,2.90
2022-12-12T00:33:12.984Z,2.90
2022-12-12T00:34:13.132Z,2.90
2022-12-12T00:35:13.338Z,2.90
2022-12-12T00:36:13.948Z,2.80
2022-12-12T00:37:12.889Z,2.90
2022-12-12T00:38:13.037Z,2.80
2022-12-12T00:39:18.204Z,2.90
2022-12-12T00:40:14.167Z,2.90
2022-12-12T00:41:12.997Z,2.90
2022-12-12T00:42:13.013Z,2.90
2022-12-12T00:43:13.071Z,2.80
2022-12-12T00:44:13.044Z,2.80
2022-12-12T00:45:13.324Z,2.80
2022-12-12T00:46:13.762Z,2.80
2022-12-12T00:47:14.036Z,2.90
2022-12-12T00:48:12.948Z,2.80
2022-12-12T00:49:12.904Z,2.90
2022-12-12T00:50:12.848Z,2.80
2022-12-12T00:51:13.668Z,2.90
2022-12-12T00:52:13.646Z,2.80
2022-12-12T00:53:13.682Z,2.80
2022-12-12T00:54:13.622Z,2.80
2022-12-12T00:55:14.074Z,2.80
2022-12-12T00:56:13.296Z,2.80
2022-12-12T00:57:13.266Z,2.80
2022-12-12T00:58:13.156Z,2.80
2022-12-12T00:59:13.525Z,2.80
2022-12-12T01:00:15.297Z,2.80
2022-12-12T01:01:13.488Z,2.80
2022-12-12T01:02:13.638Z,2.80
2022-12-12T01:03:13.645Z,2.90
2022-12-12T01:04:13.536Z,2.80
2022-12-12T01:05:13.775Z,2.90
2022-12-12T01:06:13.223Z,2.90
2022-12-12T01:07:14.648Z,2.90
2022-12-12T01:08:13.598Z,2.80
2022-12-12T01:09:13.484Z,2.70
2022-12-12T01:10:13.357Z,2.70
2022-12-12T01:11:13.293Z,2.70
2022-12-12T01:12:13.210Z,2.90
2022-12-12T01:13:14.463Z,2.90
2022-12-12T01:14:13.482Z,2.70
2022-12-12T01:15:13.667Z,2.90
2022-12-12T01:16:14.174Z,3.00
2022-12-12T01:17:13.395Z,3.00
2022-12-12T01:18:13.651Z,3.00
2022-12-12T01:19:13.579Z,3.00
2022-12-12T01:20:13.470Z,2.90
2022-12-12T01:21:13.385Z,2.80
2022-12-12T01:22:13.271Z,2.80
2022-12-12T01:23:13.427Z,2.70
2022-12-12T01:24:13.329Z,2.80
2022-12-12T01:25:13.751Z,2.80
2022-12-12T01:26:13.037Z,2.70
2022-12-12T01:27:13.048Z,2.70
2022-12-12T01:28:13.060Z,2.80
2022-12-12T01:29:13.045Z,2.80
2022-12-12T01:30:12.960Z,2.90
2022-12-12T01:31:12.941Z,2.90
2022-12-12T01:32:13.018Z,3.10
2022-12-12T01:33:12.908Z,3.10
2022-12-12T01:34:12.863Z,3.10
2022-12-12T01:35:14.200Z,3.20
2022-12-12T01:36:13.457Z,3.10
2022-12-12T01:37:13.344Z,3.10
2022-12-12T01:38:13.268Z,3.10
2022-12-12T01:39:13.259Z,3.10
2022-12-12T01:40:13.660Z,3.00
2022-12-12T01:41:13.824Z,2.90
2022-12-12T01:42:13.735Z,2.80
2022-12-12T01:43:13.841Z,2.90
2022-12-12T01:44:13.827Z,2.80
2022-12-12T01:45:14.052Z,2.90
2022-12-12T01:46:13.584Z,2.80
2022-12-12T01:47:13.980Z,2.80
2022-12-12T01:48:12.978Z,2.70
2022-12-12T01:49:13.339Z,2.70
2022-12-12T01:50:13.225Z,2.80
2022-12-12T01:51:13.418Z,2.90
2022-12-12T01:52:13.564Z,2.90
2022-12-12T01:53:13.522Z,2.90
2022-12-12T01:54:13.438Z,2.90
2022-12-12T01:55:13.850Z,3.00
2022-12-12T01:56:13.073Z,2.90
2022-12-12T01:57:13.032Z,2.90
2022-12-12T01:58:12.941Z,2.90
2022-12-12T01:59:12.779Z,3.00
2022-12-12T02:00:13.757Z,3.00
2022-12-12T02:01:13.895Z,2.90
2022-12-12T02:02:13.112Z,3.10
2022-12-12T02:03:13.085Z,3.00
2022-12-12T02:04:12.903Z,3.00
2022-12-12T02:05:13.109Z,3.00
2022-12-12T02:06:13.311Z,2.90
2022-12-12T02:07:13.320Z,2.60
2022-12-12T02:08:13.589Z,2.70
2022-12-12T02:09:13.782Z,2.90
2022-12-12T02:10:13.888Z,2.90
2022-12-12T02:11:12.848Z,3.00
2022-12-12T02:12:13.725Z,3.00
2022-12-12T02:13:13.869Z,3.00
2022-12-12T02:14:13.707Z,3.00
2022-12-12T02:15:13.766Z,2.90
2022-12-12T02:16:13.155Z,2.90
2022-12-12T02:17:13.408Z,2.90
2022-12-12T02:18:13.386Z,2.90
2022-12-12T02:19:13.288Z,2.90
2022-12-12T02:20:13.307Z,2.90
2022-12-12T02:21:13.361Z,2.90
2022-12-12T02:22:13.263Z,3.00
2022-12-12T02:23:13.163Z,2.90
2022-12-12T02:24:13.214Z,3.00
2022-12-12T02:25:13.418Z,3.00
2022-12-12T02:26:14.050Z,2.90
2022-12-12T02:27:18.197Z,2.90
2022-12-12T02:28:13.293Z,3.00
2022-12-12T02:29:13.297Z,3.00
2022-12-12T02:30:13.308Z,2.80
2022-12-12T02:31:13.481Z,2.80
2022-12-12T02:32:13.891Z,2.90
2022-12-12T02:33:12.802Z,2.80
2022-12-12T02:34:13.798Z,2.80
2022-12-12T02:35:13.976Z,2.90
2022-12-12T02:36:13.241Z,2.50
2022-12-12T02:37:13.146Z,2.70
2022-12-12T02:38:13.088Z,2.90
2022-12-12T02:39:13.029Z,2.90
2022-12-12T02:40:13.176Z,2.90
2022-12-12T02:41:13.240Z,2.90
2022-12-12T02:42:13.317Z,2.90
2022-12-12T02:43:13.248Z,2.90
2022-12-12T02:44:13.244Z,2.80
2022-12-12T02:45:13.478Z,2.70
2022-12-12T02:46:13.605Z,2.70
2022-12-12T02:47:13.566Z,2.80
2022-12-12T02:48:13.863Z,2.80
2022-12-12T02:49:13.901Z,2.80
2022-12-12T02:50:12.799Z,2.80
2022-12-12T02:51:13.775Z,2.80
2022-12-12T02:52:13.683Z,2.70
2022-12-12T02:53:13.695Z,2.80
2022-12-12T02:54:13.532Z,2.80
2022-12-12T02:55:13.595Z,2.70
2022-12-12T02:56:13.986Z,2.90
2022-12-12T02:57:13.189Z,2.80
2022-12-12T02:58:13.271Z,2.80
2022-12-12T02:59:13.315Z,2.80
2022-12-12T03:00:13.321Z,2.70
2022-12-12T03:01:13.486Z,2.70
2022-12-12T03:02:13.670Z,2.80
2022-12-12T03:03:13.580Z,2.70
2022-12-12T03:04:13.485Z,2.40
2022-12-12T03:05:13.627Z,2.20
2022-12-12T03:06:13.988Z,2.00
2022-12-12T03:07:12.910Z,2.30
2022-12-12T03:08:12.948Z,2.50
2022-12-12T03:09:13.053Z,2.40
2022-12-12T03:10:12.917Z,2.50
2022-12-12T03:11:12.832Z,2.50
2022-12-12T03:12:13.770Z,2.70
2022-12-12T03:13:13.700Z,3.00
2022-12-12T03:14:13.614Z,3.10
2022-12-12T03:15:13.835Z,3.10
2022-12-12T03:16:13.044Z,3.10
2022-12-12T03:17:13.102Z,2.90
2022-12-12T03:18:13.074Z,2.80
2022-12-12T03:19:18.233Z,3.10
2022-12-12T03:20:13.140Z,3.20
2022-12-12T03:21:13.049Z,2.90
2022-12-12T03:22:13.068Z,2.70
2022-12-12T03:23:12.906Z,2.50
2022-12-12T03:24:12.805Z,2.40
2022-12-12T03:25:14.500Z,2.30
2022-12-12T03:26:13.583Z,2.20
2022-12-12T03:27:13.563Z,2.30
2022-12-12T03:28:13.534Z,2.80
2022-12-12T03:29:13.831Z,3.00
2022-12-12T03:30:13.784Z,3.10
2022-12-12T03:31:13.723Z,3.10
2022-12-12T03:32:14.075Z,3.20
2022-12-12T03:33:13.375Z,3.30
2022-12-12T03:34:13.279Z,3.00
2022-12-12T03:35:13.539Z,3.00
2022-12-12T03:36:13.764Z,3.00
2022-12-12T03:37:13.792Z,2.90
2022-12-12T03:38:13.733Z,3.10
2022-12-12T03:39:13.723Z,2.90
2022-12-12T03:40:13.591Z,3.00
2022-12-12T03:41:13.717Z,3.00
2022-12-12T03:42:13.663Z,3.00
2022-12-12T03:43:13.704Z,3.00
2022-12-12T03:44:13.929Z,3.00
2022-12-12T03:45:13.206Z,2.80
2022-12-12T03:46:13.799Z,2.90
2022-12-12T03:47:13.766Z,3.00
2022-12-12T03:48:14.033Z,3.20
2022-12-12T03:49:12.934Z,3.30
2022-12-12T03:50:12.846Z,3.20
2022-12-12T03:51:13.782Z,3.10
2022-12-12T03:52:13.679Z,3.00
2022-12-12T03:53:13.546Z,2.80
2022-12-12T03:54:13.794Z,2.50
2022-12-12T03:55:14.538Z,2.50
2022-12-12T03:56:13.880Z,2.40
2022-12-12T03:57:13.236Z,2.30
2022-12-12T03:58:13.203Z,2.50
2022-12-12T03:59:13.076Z,2.60
2022-12-12T04:00:13.058Z,2.70
2022-12-12T04:01:13.257Z,2.80
2022-12-12T04:02:13.209Z,3.10
2022-12-12T04:03:13.569Z,3.20
2022-12-12T04:04:13.655Z,3.10
2022-12-12T04:05:13.881Z,3.20
2022-12-12T04:06:13.018Z,3.10
2022-12-12T04:07:12.990Z,3.10
2022-12-12T04:08:12.925Z,3.00
2022-12-12T04:09:13.233Z,3.30
2022-12-12T04:10:13.303Z,3.10
2022-12-12T04:11:13.486Z,3.10
2022-12-12T04:12:13.520Z,3.10
2022-12-12T04:13:13.763Z,3.10
2022-12-12T04:14:13.915Z,3.10
2022-12-12T04:15:13.397Z,2.90
2022-12-12T04:16:13.858Z,2.90
2022-12-12T04:17:13.043Z,3.00
2022-12-12T04:18:13.312Z,3.00
2022-12-12T04:19:13.326Z,3.10
2022-12-12T04:20:13.494Z,3.30
2022-12-12T04:21:13.424Z,3.30
2022-12-12T04:22:18.427Z,3.20
2022-12-12T04:23:13.676Z,3.20
2022-12-12T04:24:13.472Z,3.00
2022-12-12T04:25:13.572Z,2.90
2022-12-12T04:26:13.563Z,2.90
2022-12-12T04:27:13.483Z,2.20
2022-12-12T04:28:13.647Z,1.80
2022-12-12T04:29:13.653Z,1.60
2022-12-12T04:30:13.878Z,1.60
2022-12-12T04:31:13.885Z,1.50
2022-12-12T04:32:13.050Z,1.60
2022-12-12T04:33:12.946Z,1.80
2022-12-12T04:34:12.882Z,1.70
2022-12-12T04:35:13.358Z,1.80
2022-12-12T04:36:13.553Z,1.70
2022-12-12T04:37:13.720Z,1.90
2022-12-12T04:38:13.644Z,1.90
2022-12-12T04:39:13.684Z,1.80
2022-12-12T04:40:13.674Z,2.10
2022-12-12T04:41:13.596Z,2.10
2022-12-12T04:42:13.726Z,2.00
2022-12-12T04:43:13.891Z,2.20
2022-12-12T04:44:12.817Z,2.50
2022-12-12T04:45:13.983Z,2.50
2022-12-12T04:46:13.219Z,2.60
2022-12-12T04:47:13.485Z,2.50
2022-12-12T04:48:13.543Z,2.90
2022-12-12T04:49:18.799Z,3.10
2022-12-12T04:50:27.579Z,3.10
2022-12-12T04:51:20.226Z,3.20
2022-12-12T04:52:13.322Z,3.20
2022-12-12T04:53:18.171Z,3.20
2022-12-12T04:54:31.372Z,3.20
2022-12-12T04:55:13.587Z,3.30
2022-12-12T04:57:14.299Z,3.30
2022-12-12T04:58:13.283Z,3.30
2022-12-12T05:00:13.215Z,3.20
2022-12-12T05:01:13.119Z,3.10
2022-12-12T05:02:13.144Z,3.10
2022-12-12T05:03:13.106Z,3.20
2022-12-12T05:04:18.109Z,3.20
2022-12-12T05:05:13.415Z,3.10
2022-12-12T05:06:13.591Z,3.30
2022-12-12T05:07:13.628Z,3.40
2022-12-12T05:08:13.760Z,3.40
2022-12-12T05:09:13.721Z,3.40
2022-12-12T05:10:14.049Z,3.40
2022-12-12T05:11:13.012Z,3.40
2022-12-12T05:12:13.145Z,3.50
2022-12-12T05:13:13.182Z,3.50
2022-12-12T05:14:13.239Z,3.40
2022-12-12T05:15:13.603Z,3.40
2022-12-12T05:16:13.985Z,3.40
2022-12-12T05:17:13.029Z,3.50
2022-12-12T05:18:13.068Z,3.40
2022-12-12T05:19:13.008Z,2.90
2022-12-12T05:20:12.908Z,2.60
2022-12-12T05:21:12.907Z,2.40
2022-12-12T05:22:13.014Z,2.40
2022-12-12T05:23:13.026Z,2.30
2022-12-12T05:24:13.088Z,2.00
2022-12-12T05:25:13.470Z,1.90
2022-12-12T05:26:13.670Z,2.10
2022-12-12T05:27:13.954Z,2.30
2022-12-12T05:28:12.878Z,2.30
2022-12-12T05:29:13.819Z,2.30
2022-12-12T05:30:13.687Z,2.10
2022-12-12T05:31:13.787Z,1.90
2022-12-12T05:32:13.936Z,1.70
2022-12-12T05:33:12.869Z,1.70
2022-12-12T05:34:13.713Z,1.80
2022-12-12T05:35:13.987Z,1.90
2022-12-12T05:36:13.145Z,1.80
2022-12-12T05:37:13.228Z,1.90
2022-12-12T05:38:13.486Z,1.80
2022-12-12T05:39:13.421Z,1.70
2022-12-12T05:40:13.484Z,1.70
2022-12-12T05:41:13.593Z,1.90
2022-12-12T05:42:18.186Z,1.90
2022-12-12T05:43:13.248Z,1.80
2022-12-12T05:46:36.644Z,2.00
2022-12-12T05:47:13.482Z,2.20
2022-12-12T05:48:13.524Z,2.20
2022-12-12T05:49:13.393Z,2.00
2022-12-12T05:50:13.193Z,2.10
2022-12-12T05:51:13.125Z,2.10
2022-12-12T05:52:12.960Z,2.10
2022-12-12T05:53:13.055Z,2.00
2022-12-12T05:54:13.075Z,2.00
2022-12-12T05:55:13.226Z,2.00
2022-12-12T05:56:14.012Z,2.20
2022-12-12T05:57:12.932Z,2.20
2022-12-12T05:58:13.070Z,2.20
2022-12-12T05:59:13.455Z,2.20
2022-12-12T06:00:13.673Z,2.20
2022-12-12T06:01:14.034Z,2.20
2022-12-12T06:02:13.281Z,2.20
2022-12-12T06:03:13.259Z,2.30
2022-12-12T06:04:13.263Z,2.30
2022-12-12T06:05:13.515Z,2.40
2022-12-12T06:06:13.529Z,2.40
2022-12-12T06:07:13.569Z,2.20
2022-12-12T06:08:13.933Z,2.20
2022-12-12T06:09:13.165Z,2.10
2022-12-12T06:10:13.354Z,2.70
2022-12-12T06:11:13.465Z,2.80
2022-12-12T06:12:13.503Z,2.80
2022-12-12T06:13:13.527Z,2.80
2022-12-12T06:14:13.442Z,2.60
2022-12-12T06:15:13.644Z,2.10
2022-12-12T06:16:13.040Z,2.10
2022-12-12T06:17:12.997Z,2.00
2022-12-12T06:18:13.079Z,2.00
2022-12-12T06:19:12.967Z,2.00
2022-12-12T06:20:12.985Z,2.00
2022-12-12T06:21:12.860Z,1.90
2022-12-12T06:22:13.799Z,1.90
2022-12-12T06:23:13.673Z,1.90
2022-12-12T06:24:13.671Z,1.90
2022-12-12T06:25:14.250Z,1.90
2022-12-12T06:26:13.363Z,1.90
2022-12-12T06:27:13.538Z,1.90
2022-12-12T06:28:13.596Z,1.80
2022-12-12T06:29:13.449Z,1.80
2022-12-12T06:30:13.455Z,1.90
2022-12-12T06:31:13.358Z,1.90
2022-12-12T06:32:13.334Z,2.50
2022-12-12T06:33:13.367Z,2.70
2022-12-12T06:34:13.325Z,2.80
2022-12-12T06:35:13.645Z,2.90
2022-12-12T06:36:13.695Z,2.90
2022-12-12T06:37:17.237Z,2.80
2022-12-12T06:38:13.451Z,2.60
2022-12-12T06:39:13.718Z,2.20
2022-12-12T06:40:13.733Z,2.10
2022-12-12T06:41:13.967Z,2.10
2022-12-12T06:42:13.214Z,2.20
2022-12-12T06:43:13.183Z,2.20
2022-12-12T06:44:13.605Z,2.10
2022-12-12T06:45:13.742Z,2.20
2022-12-12T06:46:13.178Z,2.20
2022-12-12T06:47:13.017Z,2.20
2022-12-12T06:48:12.935Z,2.10
2022-12-12T06:49:13.205Z,2.10
2022-12-12T06:50:13.054Z,2.10
2022-12-12T06:51:12.904Z,2.10
2022-12-12T06:52:12.764Z,2.10
2022-12-12T06:53:13.694Z,2.10
2022-12-12T06:54:13.626Z,2.00
2022-12-12T06:55:14.039Z,2.00
2022-12-12T06:56:13.295Z,2.00
2022-12-12T06:57:13.417Z,2.00
2022-12-12T06:58:13.715Z,1.90
2022-12-12T06:59:14.021Z,1.90
2022-12-12T07:00:13.068Z,1.70
2022-12-12T07:01:14.915Z,1.70
2022-12-12T07:02:12.928Z,1.80
2022-12-12T07:03:12.876Z,1.80
2022-12-12T07:04:12.859Z,1.80
2022-12-12T07:05:14.147Z,1.80
2022-12-12T07:06:13.320Z,1.70
2022-12-12T07:07:13.269Z,1.70
2022-12-12T07:08:13.882Z,1.70
2022-12-12T07:09:13.144Z,1.70
2022-12-12T07:10:13.296Z,1.40
2022-12-12T07:11:13.293Z,1.60
2022-12-12T07:12:13.552Z,1.60
2022-12-12T07:13:13.611Z,1.60
2022-12-12T07:14:13.562Z,1.80
2022-12-12T07:15:13.970Z,1.60
2022-12-12T07:16:13.166Z,1.80
2022-12-12T07:17:13.104Z,2.20
2022-12-12T07:18:13.050Z,2.30
2022-12-12T07:19:12.944Z,2.10
2022-12-12T07:20:13.206Z,1.80
2022-12-12T07:21:13.180Z,1.70
2022-12-12T07:22:13.259Z,1.40
2022-12-12T07:23:13.423Z,1.20
2022-12-12T07:24:13.446Z,1.40
2022-12-12T07:25:13.711Z,1.90
2022-12-12T07:26:12.842Z,1.80
2022-12-12T07:27:18.455Z,1.80
2022-12-12T07:28:13.712Z,2.00
2022-12-12T07:29:13.647Z,1.50
2022-12-12T07:30:13.633Z,1.50
2022-12-12T07:31:13.891Z,1.30
2022-12-12T07:32:12.808Z,1.40
2022-12-12T07:33:13.709Z,1.40
2022-12-12T07:34:13.778Z,1.40
2022-12-12T07:35:14.563Z,1.50
2022-12-12T07:36:13.753Z,1.50
2022-12-12T07:37:14.145Z,1.60
2022-12-12T07:38:13.046Z,1.70
2022-12-12T07:39:17.337Z,1.80
2022-12-12T07:40:13.468Z,1.70
2022-12-12T07:41:13.555Z,1.80
2022-12-12T07:42:13.418Z,1.90
2022-12-12T07:43:13.349Z,1.90
2022-12-12T07:44:13.402Z,1.80
2022-12-12T07:45:18.061Z,1.90
2022-12-12T07:46:13.710Z,1.90
2022-12-12T07:47:41.396Z,2.00
2022-12-12T07:48:13.492Z,2.00
2022-12-12T07:49:37.595Z,1.90
2022-12-12T07:50:13.496Z,1.80
2022-12-12T07:51:13.620Z,1.80
2022-12-12T07:52:13.801Z,1.80
2022-12-12T07:53:13.692Z,1.70
2022-12-12T07:54:13.681Z,1.60
2022-12-12T07:55:13.917Z,1.60
2022-12-12T07:56:13.326Z,1.60
2022-12-12T07:57:14.862Z,1.70
2022-12-12T07:58:13.080Z,1.70
2022-12-12T07:59:12.970Z,1.70
2022-12-12T08:00:12.919Z,1.80
2022-12-12T08:01:17.312Z,1.80
2022-12-12T08:02:13.354Z,1.80
2022-12-12T08:03:13.364Z,1.80
2022-12-12T08:04:13.335Z,1.80
2022-12-12T08:05:13.540Z,1.70
2022-12-12T08:06:13.911Z,1.70
2022-12-12T08:07:12.804Z,1.60
2022-12-12T08:08:14.571Z,1.70
2022-12-12T08:09:13.661Z,1.60
2022-12-12T08:10:14.053Z,1.70
2022-12-12T08:11:13.377Z,1.70
2022-12-12T08:12:13.754Z,1.70
2022-12-12T08:13:13.731Z,1.70
2022-12-12T08:14:13.668Z,1.70
2022-12-12T08:15:13.774Z,1.70
2022-12-12T08:16:13.118Z,1.70
2022-12-12T08:17:13.138Z,1.50
2022-12-12T08:18:13.223Z,1.30
2022-12-12T08:19:18.627Z,1.30
2022-12-12T08:20:13.776Z,1.30
2022-12-12T08:21:13.816Z,1.20
2022-12-12T08:22:13.756Z,1.20
2022-12-12T08:23:13.855Z,1.10
2022-12-12T08:24:13.971Z,1.10
2022-12-12T08:25:18.188Z,1.20
2022-12-12T08:26:13.125Z,1.30
2022-12-12T08:27:15.788Z,1.20
2022-12-12T08:28:13.169Z,1.30
2022-12-12T08:29:13.113Z,1.60
2022-12-12T08:30:13.026Z,1.40
2022-12-12T08:31:13.261Z,1.40
2022-12-12T08:32:43.092Z,1.50
2022-12-12T08:33:13.082Z,1.50
2022-12-12T08:34:13.235Z,1.50
2022-12-12T08:35:13.369Z,1.50
2022-12-12T08:36:36.539Z,1.50
2022-12-12T08:37:13.760Z,1.40
2022-12-12T08:38:13.923Z,1.40
2022-12-12T08:39:26.960Z,1.40
2022-12-12T08:40:12.988Z,1.40
2022-12-12T08:41:12.985Z,1.50
2022-12-12T08:42:13.004Z,1.60
2022-12-12T08:43:13.311Z,1.60
2022-12-12T08:44:13.187Z,1.70
2022-12-12T08:45:13.623Z,1.70
2022-12-12T08:46:17.366Z,1.70
2022-12-12T08:47:13.266Z,1.70
2022-12-12T08:48:13.341Z,1.80
2022-12-12T08:49:13.388Z,1.80
2022-12-12T08:50:13.379Z,1.80
2022-12-12T08:51:13.644Z,1.90
2022-12-12T08:52:13.841Z,1.90
2022-12-12T08:53:13.772Z,1.90
2022-12-12T08:54:13.891Z,1.80
2022-12-12T08:55:14.056Z,1.90
2022-12-12T08:56:13.437Z,1.80
2022-12-12T08:57:13.460Z,2.00
2022-12-12T08:58:13.682Z,1.90
2022-12-12T08:59:13.601Z,2.10
2022-12-12T09:00:13.577Z,2.20
2022-12-12T09:01:13.832Z,1.80
2022-12-12T09:02:14.045Z,1.70
2022-12-12T09:03:13.445Z,2.10
2022-12-12T09:04:13.492Z,1.90
2022-12-12T09:05:13.611Z,2.20
2022-12-12T09:06:13.662Z,2.20
2022-12-12T09:07:13.542Z,2.30
2022-12-12T09:08:13.753Z,2.30
2022-12-12T09:09:13.977Z,2.40
2022-12-12T09:10:13.679Z,2.30
2022-12-12T09:11:14.751Z,2.40
2022-12-12T09:12:14.176Z,2.20
2022-12-12T09:13:13.483Z,2.20
2022-12-12T09:14:13.414Z,2.50
2022-12-12T09:15:13.671Z,2.50
2022-12-12T09:16:13.888Z,2.10
2022-12-12T09:17:13.257Z,1.90
2022-12-12T09:18:13.280Z,1.80
2022-12-12T09:19:13.283Z,2.20
2022-12-12T09:20:13.237Z,2.20
2022-12-12T09:21:13.186Z,2.40
2022-12-12T09:22:13.154Z,2.30
2022-12-12T09:23:13.418Z,2.50
2022-12-12T09:24:13.294Z,2.40
2022-12-12T09:25:13.614Z,2.20
2022-12-12T09:26:12.990Z,2.50
2022-12-12T09:27:13.134Z,2.40
2022-12-12T09:29:13.219Z,2.30
2022-12-12T09:30:13.123Z,2.40
2022-12-12T09:31:13.279Z,2.60
2022-12-12T09:32:13.241Z,2.70
2022-12-12T09:33:13.217Z,2.60
2022-12-12T09:34:13.528Z,2.50
2022-12-12T09:35:13.760Z,2.50
2022-12-12T09:36:12.737Z,2.70
2022-12-12T09:37:13.655Z,2.80
2022-12-12T09:38:14.941Z,2.90
2022-12-12T09:39:13.344Z,2.70
2022-12-12T09:40:13.262Z,2.40
2022-12-12T09:41:13.445Z,2.10
2022-12-12T09:42:13.763Z,2.10
2022-12-12T09:43:14.113Z,1.80
2022-12-12T09:44:14.082Z,1.90
2022-12-12T09:45:13.732Z,2.40
2022-12-12T09:46:12.825Z,2.50
2022-12-12T09:47:13.739Z,2.90
2022-12-12T09:48:13.652Z,2.90
2022-12-12T09:49:13.526Z,3.10
2022-12-12T09:50:13.985Z,2.70
2022-12-12T09:51:13.607Z,2.40
2022-12-12T09:52:13.663Z,2.40
2022-12-12T09:53:13.627Z,2.50
2022-12-12T09:54:13.521Z,2.30
2022-12-12T09:55:13.702Z,2.80
2022-12-12T09:56:14.022Z,2.80
2022-12-12T09:57:13.071Z,2.70
2022-12-12T09:58:13.025Z,2.70
2022-12-12T09:59:13.016Z,2.40
2022-12-12T10:00:13.284Z,2.40
2022-12-12T10:01:13.738Z,2.20
2022-12-12T10:02:13.729Z,2.10
2022-12-12T10:03:13.603Z,2.60
2022-12-12T10:04:13.528Z,3.10
2022-12-12T10:05:13.464Z,3.90
2022-12-12T10:06:36.383Z,4.20
2022-12-12T10:07:13.701Z,4.40
2022-12-12T10:08:13.979Z,4.40
2022-12-12T10:09:13.212Z,4.40
2022-12-12T10:10:13.382Z,4.50
2022-12-12T10:11:13.713Z,4.50
2022-12-12T10:12:13.865Z,5.20
2022-12-12T10:13:27.657Z,4.90
2022-12-12T10:14:13.715Z,5.20
2022-12-12T10:15:14.206Z,5.20
2022-12-12T10:16:13.495Z,5.40
2022-12-12T10:17:13.696Z,5.50
2022-12-12T10:18:13.829Z,5.80
2022-12-12T10:19:13.702Z,6.40
2022-12-12T10:20:14.097Z,6.60
2022-12-12T10:21:13.671Z,6.80
2022-12-12T10:22:15.055Z,6.90
2022-12-12T10:23:13.216Z,7.50
2022-12-12T10:24:13.311Z,7.10
2022-12-12T10:25:13.519Z,7.50
2022-12-12T10:26:13.458Z,7.60
2022-12-12T10:27:13.688Z,7.70
2022-12-12T10:28:13.850Z,7.20
2022-12-12T10:29:14.001Z,7.70
2022-12-12T10:30:13.594Z,7.50
2022-12-12T10:31:13.938Z,8.00
2022-12-12T10:32:12.859Z,8.30
2022-12-12T10:33:13.935Z,8.10
2022-12-12T10:34:13.051Z,7.50
2022-12-12T10:35:18.864Z,8.10
2022-12-12T10:36:13.882Z,7.90
2022-12-12T10:37:13.886Z,8.60
2022-12-12T10:38:13.843Z,8.40
2022-12-12T10:39:14.008Z,6.80
2022-12-12T10:40:12.928Z,5.20
2022-12-12T10:41:13.009Z,6.20
2022-12-12T10:42:12.993Z,7.00
2022-12-12T10:43:13.102Z,5.10
2022-12-12T10:44:13.601Z,5.10
2022-12-12T10:45:14.310Z,5.30
2022-12-12T10:46:13.979Z,4.20
2022-12-12T10:47:13.409Z,5.10
2022-12-12T10:48:13.484Z,5.30
2022-12-12T10:49:13.557Z,5.50
2022-12-12T10:50:13.882Z,4.60
2022-12-12T10:51:13.014Z,5.30
2022-12-12T10:52:13.102Z,5.90
2022-12-12T10:53:12.929Z,6.50
2022-12-12T10:54:12.975Z,5.50
2022-12-12T10:55:13.285Z,6.30
2022-12-12T10:56:13.469Z,6.40
2022-12-12T10:57:19.967Z,6.80
2022-12-12T10:58:13.954Z,6.60
2022-12-12T10:59:12.868Z,6.70
2022-12-12T11:00:13.814Z,6.50
2022-12-12T11:01:14.200Z,5.80
2022-12-12T11:02:13.575Z,6.80
2022-12-12T11:03:13.693Z,5.80
2022-12-12T11:04:13.771Z,5.30
2022-12-12T11:05:14.068Z,6.50
2022-12-12T11:06:13.704Z,6.80
2022-12-12T11:07:13.974Z,7.30
2022-12-12T11:08:13.109Z,6.40
2022-12-12T11:09:13.186Z,7.00
2022-12-12T11:10:13.141Z,7.80
2022-12-12T11:11:13.455Z,7.00
2022-12-12T11:12:13.820Z,6.70
2022-12-12T11:13:14.841Z,6.30
2022-12-12T11:14:13.970Z,6.40
2022-12-12T11:15:13.204Z,5.20
2022-12-12T11:16:13.880Z,4.20
2022-12-12T11:17:12.964Z,3.50
2022-12-12T11:18:13.178Z,3.80
2022-12-12T11:19:13.067Z,4.40
2022-12-12T11:20:13.066Z,5.00
2022-12-12T11:21:13.019Z,5.70
2022-12-12T11:22:12.985Z,6.20
2022-12-12T11:23:17.955Z,6.70
2022-12-12T11:24:13.449Z,7.40
2022-12-12T11:25:13.789Z,8.10
2022-12-12T11:26:13.293Z,8.10
2022-12-12T11:27:13.200Z,8.30
2022-12-12T11:28:13.160Z,8.30
2022-12-12T11:29:13.169Z,6.20
2022-12-12T11:30:13.121Z,5.30
2022-12-12T11:31:13.028Z,5.70
2022-12-12T11:32:13.019Z,5.60
2022-12-12T11:33:13.010Z,5.60
2022-12-12T11:34:13.389Z,6.20
2022-12-12T11:35:13.579Z,6.00
2022-12-12T11:36:13.674Z,6.80
2022-12-12T11:37:14.075Z,7.50
2022-12-12T11:38:13.067Z,7.40
2022-12-12T11:39:13.043Z,6.80
2022-12-12T11:40:13.013Z,7.10
2022-12-12T11:41:13.566Z,7.50
2022-12-12T11:42:13.491Z,7.80
2022-12-12T11:43:13.411Z,7.90
2022-12-12T11:44:19.960Z,8.40
2022-12-12T11:45:13.448Z,7.70
2022-12-12T11:46:13.830Z,6.90
2022-12-12T11:47:13.926Z,6.40
2022-12-12T11:48:13.143Z,5.90
2022-12-12T11:49:13.141Z,5.50
2022-12-12T11:50:13.070Z,5.00
2022-12-12T11:51:13.002Z,4.30
2022-12-12T11:52:31.239Z,5.40
2022-12-12T11:53:13.633Z,6.20
2022-12-12T11:54:13.549Z,7.20
2022-12-12T11:55:22.037Z,7.30
2022-12-12T11:56:13.628Z,6.90
2022-12-12T11:57:13.789Z,6.90
2022-12-12T11:58:13.646Z,7.50
2022-12-12T11:59:14.091Z,7.90
2022-12-12T12:00:12.973Z,7.60
2022-12-12T12:01:12.861Z,7.20
2022-12-12T12:02:13.959Z,6.50
2022-12-12T12:03:12.973Z,5.80
2022-12-12T12:04:13.024Z,5.70
2022-12-12T12:05:13.272Z,7.00
2022-12-12T12:06:13.444Z,7.70
2022-12-12T12:07:13.372Z,8.10
2022-12-12T12:08:13.359Z,8.10
2022-12-12T12:09:13.347Z,8.50
2022-12-12T12:10:13.442Z,8.90
2022-12-12T12:11:13.376Z,9.70
2022-12-12T12:12:13.461Z,9.90
2022-12-12T12:13:13.359Z,9.90
2022-12-12T12:14:13.349Z,9.30
2022-12-12T12:15:13.666Z,9.00
2022-12-12T12:16:13.748Z,9.10
2022-12-12T12:17:13.679Z,8.90
2022-12-12T12:18:13.601Z,9.00
2022-12-12T12:19:13.709Z,9.30
2022-12-12T12:20:14.144Z,8.60
2022-12-12T12:21:13.069Z,7.30
2022-12-12T12:22:13.100Z,5.30
2022-12-12T12:23:13.284Z,6.20
2022-12-12T12:24:13.189Z,5.90
2022-12-12T12:25:13.318Z,6.50
2022-12-12T12:26:13.333Z,6.90
2022-12-12T12:27:13.208Z,7.10
2022-12-12T12:28:13.625Z,7.20
2022-12-12T12:29:13.588Z,6.80
2022-12-12T12:30:14.192Z,7.70
2022-12-12T12:31:13.406Z,7.70
2022-12-12T12:32:13.351Z,7.50
2022-12-12T12:33:13.258Z,7.00
2022-12-12T12:34:13.278Z,7.70
2022-12-12T12:35:13.678Z,8.30
2022-12-12T12:36:19.271Z,8.00
2022-12-12T12:37:13.036Z,8.60
2022-12-12T12:38:13.244Z,8.70
2022-12-12T12:39:13.151Z,6.30
2022-12-12T12:40:13.212Z,5.50
2022-12-12T12:41:13.126Z,4.50
2022-12-12T12:42:13.144Z,4.40
2022-12-12T12:43:13.236Z,4.30
2022-12-12T12:44:13.250Z,4.30
2022-12-12T12:45:13.636Z,4.30
2022-12-12T12:46:12.892Z,3.80
2022-12-12T12:47:12.746Z,4.20
2022-12-12T12:48:13.780Z,4.40
2022-12-12T12:49:13.901Z,4.20
2022-12-12T12:50:13.217Z,4.80
2022-12-12T12:51:14.050Z,4.90
2022-12-12T12:52:13.129Z,4.70
2022-12-12T12:53:13.378Z,5.10
2022-12-12T12:54:13.219Z,4.60
2022-12-12T12:55:13.651Z,5.30
2022-12-12T12:56:13.251Z,4.30
2022-12-12T12:57:13.420Z,4.40
2022-12-12T12:58:13.726Z,4.30
2022-12-12T12:59:13.642Z,4.60
2022-12-12T13:00:14.082Z,4.50
2022-12-12T13:01:13.391Z,4.40
2022-12-12T13:02:13.407Z,4.40
2022-12-12T13:03:13.684Z,4.20
2022-12-12T13:04:13.596Z,3.90
2022-12-12T13:05:13.693Z,3.60
2022-12-12T13:06:14.282Z,4.30
2022-12-12T13:07:13.170Z,4.60
2022-12-12T13:08:13.279Z,4.60
2022-12-12T13:09:13.255Z,4.20
2022-12-12T13:10:13.782Z,4.20
2022-12-12T13:11:13.022Z,4.50
2022-12-12T13:12:12.884Z,5.20
2022-12-12T13:13:14.749Z,4.20
2022-12-12T13:14:13.628Z,4.80
2022-12-12T13:15:13.773Z,4.60
2022-12-12T13:16:14.980Z,4.60
2022-12-12T13:17:13.044Z,4.30
2022-12-12T13:18:13.191Z,4.30
2022-12-12T13:19:13.246Z,3.70
2022-12-12T13:20:16.357Z,3.90
2022-12-12T13:21:14.091Z,4.10
2022-12-12T13:22:13.176Z,4.10
2022-12-12T13:23:13.272Z,3.90